Time;durP1;ratioP1;P1;durP2;ratioP2;P2;SDS_P1;SDS_P2;PMS_P1;PMS_P2;Temp;Humidity;BMP_temperature;BMP_pressure;BME280_temperature;BME280_humidity;BME280_pressure;Samples;Min_cycle;Max_cycle;Signal;HPM_P1;HPM_P2
2021/12/09 00:03:15;;;;;;;;;;;1.70;99.90;;;;;;8347215;28;19916;-63
2021/12/09 00:07:15;;;;;;;;;;;1.70;99.90;;;;;;8346422;28;19923;-63
2021/12/09 00:11:16;;;;;;;;;;;1.80;99.90;;;;;;8362625;28;19924;-63
2021/12/09 00:15:17;;;;;;;;;;;1.90;99.90;;;;;;8347142;28;19939;-62
2021/12/09 00:19:18;;;;;;;;;;;1.80;99.90;;;;;;8364482;28;19959;-63
2021/12/09 00:23:18;;;;;;;;;;;1.80;99.90;;;;;;8346096;28;20007;-63
2021/12/09 00:27:19;;;;;;;;;;;1.80;99.90;;;;;;8364394;28;19915;-63
2021/12/09 00:31:19;;;;;;;;;;;1.80;99.90;;;;;;8362784;28;20288;-63
2021/12/09 00:35:21;;;;;;;;;;;1.90;99.90;;;;;;8345853;28;19986;-63
2021/12/09 00:39:22;;;;;;;;;;;2.00;99.90;;;;;;8331039;28;19917;-63
2021/12/09 00:43:22;;;;;;;;;;;1.90;99.90;;;;;;8363590;28;20343;-62
2021/12/09 00:47:23;;;;;;;;;;;1.80;99.90;;;;;;8364213;28;19951;-63
2021/12/09 00:51:24;;;;;;;;;;;1.80;99.90;;;;;;8356135;28;20552;-63
2021/12/09 00:55:25;;;;;;;;;;;1.80;99.90;;;;;;8363671;28;19921;-63
2021/12/09 00:59:25;;;;;;;;;;;1.70;99.90;;;;;;8344170;28;20005;-63
2021/12/09 01:03:26;;;;;;;;;;;1.70;99.90;;;;;;8345371;28;19984;-63
2021/12/09 01:07:26;;;;;;;;;;;1.70;99.90;;;;;;8345410;28;19913;-63
2021/12/09 01:11:27;;;;;;;;;;;1.80;99.90;;;;;;8332287;28;19913;-63
2021/12/09 01:15:27;;;;;;;;;;;1.70;99.90;;;;;;8390348;28;19913;-62
2021/12/09 01:19:28;;;;;;;;;;;1.70;99.90;;;;;;8365546;28;19915;-62
2021/12/09 01:23:28;;;;;;;;;;;1.70;99.90;;;;;;8356268;28;19916;-63
2021/12/09 01:27:31;;;;;;;;;;;1.70;99.90;;;;;;8362289;28;19944;-63
2021/12/09 01:31:36;;;;;;;;;;;1.60;99.90;;;;;;8362491;28;19931;-62
2021/12/09 01:35:38;;;;;;;;;;;1.60;99.90;;;;;;8362581;28;20059;-63
2021/12/09 01:39:39;;;;;;;;;;;1.70;99.90;;;;;;8330904;28;19921;-63
2021/12/09 01:43:39;;;;;;;;;;;1.70;99.90;;;;;;8329651;28;19913;-62
2021/12/09 01:47:40;;;;;;;;;;;2.00;99.90;;;;;;8343774;28;19947;-62
2021/12/09 01:51:41;;;;;;;;;;;1.90;99.90;;;;;;8344320;28;19962;-62
2021/12/09 01:55:42;;;;;;;;;;;2.00;99.90;;;;;;8362198;28;19913;-63
2021/12/09 01:59:42;;;;;;;;;;;1.90;99.90;;;;;;8361132;28;19920;-63
2021/12/09 02:03:43;;;;;;;;;;;1.80;99.90;;;;;;8362419;28;20443;-63
2021/12/09 02:07:44;;;;;;;;;;;1.80;99.90;;;;;;8347262;28;19913;-62
2021/12/09 02:11:45;;;;;;;;;;;1.80;99.90;;;;;;8328374;28;19909;-62
2021/12/09 02:15:45;;;;;;;;;;;1.90;99.90;;;;;;8328275;28;19909;-62
2021/12/09 02:19:46;;;;;;;;;;;1.80;99.90;;;;;;8310873;28;20408;-61
2021/12/09 02:23:48;;;;;;;;;;;1.70;99.90;;;;;;8357348;28;19912;-62
2021/12/09 02:27:49;;;;;;;;;;;1.90;99.90;;;;;;8360515;28;20365;-62
2021/12/09 02:31:55;;;;;;;;;;;1.80;99.90;;;;;;8360546;28;19908;-62
2021/12/09 02:35:56;;;;;;;;;;;1.80;99.90;;;;;;8360652;28;19912;-63
2021/12/09 02:39:57;;;;;;;;;;;1.90;99.90;;;;;;8333865;28;19924;-63
2021/12/09 02:44:01;;;;;;;;;;;1.80;99.90;;;;;;8338406;28;19936;-62
2021/12/09 02:48:01;;;;;;;;;;;1.80;99.90;;;;;;8327555;28;19967;-62
2021/12/09 02:52:03;;;;;;;;;;;1.70;99.90;;;;;;8341838;28;19917;-62
2021/12/09 02:56:04;;;;;;;;;;;1.70;99.90;;;;;;8337764;28;19913;-62
2021/12/09 03:00:06;;;;;;;;;;;1.80;99.90;;;;;;8309458;28;20408;-62
2021/12/09 03:04:06;;;;;;;;;;;1.80;99.90;;;;;;8368955;28;19978;-62
2021/12/09 03:08:08;;;;;;;;;;;1.90;99.90;;;;;;8357483;28;19912;-62
2021/12/09 03:12:12;;;;;;;;;;;1.90;99.90;;;;;;8353901;28;20577;-62
2021/12/09 03:16:13;;;;;;;;;;;2.00;99.90;;;;;;8326515;28;19920;-62
2021/12/09 03:20:16;;;;;;;;;;;1.80;99.90;;;;;;8308573;28;19959;-62
2021/12/09 03:24:18;;;;;;;;;;;1.90;99.90;;;;;;8357845;28;20007;-62
2021/12/09 03:28:18;;;;;;;;;;;1.90;99.90;;;;;;8359244;28;19963;-62
2021/12/09 03:32:21;;;;;;;;;;;1.80;99.90;;;;;;8358396;28;20368;-62
2021/12/09 03:36:25;;;;;;;;;;;1.80;99.90;;;;;;8358925;28;20307;-62
2021/12/09 03:40:26;;;;;;;;;;;1.80;99.90;;;;;;8358705;28;19917;-62
2021/12/09 03:44:28;;;;;;;;;;;1.80;99.90;;;;;;8334937;28;19917;-62
2021/12/09 03:48:29;;;;;;;;;;;1.80;99.90;;;;;;8325765;28;19935;-62
2021/12/09 03:52:30;;;;;;;;;;;1.70;99.90;;;;;;8343973;28;19913;-62
2021/12/09 03:56:30;;;;;;;;;;;1.80;99.90;;;;;;8358919;28;19909;-62
2021/12/09 04:00:31;;;;;;;;;;;1.80;99.90;;;;;;8358362;28;19955;-62
2021/12/09 04:04:32;;;;;;;;;;;1.80;99.90;;;;;;8357977;28;19916;-63
2021/12/09 04:08:33;;;;;;;;;;;1.80;99.90;;;;;;8358609;28;20007;-63
2021/12/09 04:12:34;;;;;;;;;;;1.80;99.90;;;;;;8332446;28;20443;-62
2021/12/09 04:16:35;;;;;;;;;;;1.90;99.90;;;;;;8325252;28;19913;-63
2021/12/09 04:20:36;;;;;;;;;;;1.80;99.90;;;;;;8328705;28;19964;-63
2021/12/09 04:24:36;;;;;;;;;;;1.80;99.90;;;;;;8357543;28;19986;-63
2021/12/09 04:28:38;;;;;;;;;;;1.80;99.90;;;;;;8358310;28;19970;-62
2021/12/09 04:32:39;;;;;;;;;;;1.70;99.90;;;;;;8357982;28;19916;-63
2021/12/09 04:36:39;;;;;;;;;;;1.80;99.90;;;;;;8352229;28;20396;-62
2021/12/09 04:40:40;;;;;;;;;;;1.80;99.90;;;;;;8336268;28;20004;-63
2021/12/09 04:44:40;;;;;;;;;;;1.80;99.90;;;;;;8345974;28;20400;-63
2021/12/09 04:48:41;;;;;;;;;;;1.70;99.90;;;;;;8352841;28;19917;-63
2021/12/09 04:52:42;;;;;;;;;;;1.80;99.90;;;;;;8355892;28;19916;-63
2021/12/09 04:56:42;;;;;;;;;;;1.80;99.90;;;;;;8376776;22;19978;-66
2021/12/09 05:00:43;;;;;;;;;;;1.80;99.90;;;;;;8395147;28;19928;-66
2021/12/09 05:04:43;;;;;;;;;;;1.90;99.90;;;;;;8378385;28;20407;-66
2021/12/09 05:08:47;;;;;;;;;;;1.80;99.90;;;;;;8378475;28;19920;-66
2021/12/09 05:12:48;;;;;;;;;;;1.70;99.90;;;;;;8355830;28;19919;-65
2021/12/09 05:16:50;;;;;;;;;;;1.80;99.90;;;;;;8380598;28;19920;-67
2021/12/09 05:20:51;;;;;;;;;;;1.90;99.90;;;;;;8373564;28;19986;-66
2021/12/09 05:24:52;;;;;;;;;;;1.90;99.90;;;;;;8361955;28;19913;-65
2021/12/09 05:28:56;;;;;;;;;;;2.00;99.90;;;;;;8359178;28;20384;-65
2021/12/09 05:32:56;;;;;;;;;;;2.10;99.90;;;;;;8363043;28;19920;-66
2021/12/09 05:36:57;;;;;;;;;;;2.00;99.90;;;;;;8361817;28;19935;-66
2021/12/09 05:40:57;;;;;;;;;;;1.90;99.90;;;;;;8361144;28;20292;-66
2021/12/09 05:44:59;;;;;;;;;;;1.90;99.90;;;;;;8361193;28;19913;-65
2021/12/09 05:49:00;;;;;;;;;;;1.90;99.90;;;;;;8370356;28;19921;-66
2021/12/09 05:53:00;;;;;;;;;;;2.00;99.90;;;;;;8354214;28;19993;-65
2021/12/09 05:57:01;;;;;;;;;;;1.80;99.90;;;;;;8364065;28;19916;-65
2021/12/09 06:01:01;;;;;;;;;;;1.70;99.90;;;;;;8376783;28;19923;-66
2021/12/09 06:05:05;;;;;;;;;;;1.60;99.90;;;;;;8361487;28;19970;-66
2021/12/09 06:09:07;;;;;;;;;;;1.60;99.90;;;;;;8361343;28;19908;-64
2021/12/09 06:13:07;;;;;;;;;;;1.80;99.90;;;;;;8342500;28;19935;-65
2021/12/09 06:17:08;;;;;;;;;;;1.80;99.90;;;;;;8328792;28;19913;-65
2021/12/09 06:21:08;;;;;;;;;;;1.80;99.90;;;;;;8336337;28;19966;-66
2021/12/09 06:25:16;;;;;;;;;;;1.70;99.90;;;;;;8360836;28;19909;-65
2021/12/09 06:29:16;;;;;;;;;;;1.70;99.90;;;;;;8361181;28;20312;-65
2021/12/09 06:33:17;;;;;;;;;;;1.70;99.90;;;;;;8342287;28;19916;-65
2021/12/09 06:37:17;;;;;;;;;;;1.70;99.90;;;;;;8328262;28;19967;-66
2021/12/09 06:41:18;;;;;;;;;;;1.60;99.90;;;;;;8328318;28;19913;-66
2021/12/09 06:45:19;;;;;;;;;;;1.60;99.90;;;;;;8338954;28;20335;-66
2021/12/09 06:49:20;;;;;;;;;;;1.50;99.90;;;;;;8358109;28;19909;-66
2021/12/09 06:53:20;;;;;;;;;;;1.60;99.90;;;;;;8352393;28;19913;-66
2021/12/09 06:57:21;;;;;;;;;;;1.80;99.90;;;;;;8359314;28;19916;-65
2021/12/09 07:01:21;;;;;;;;;;;1.70;99.90;;;;;;8344357;28;19921;-66
2021/12/09 07:05:23;;;;;;;;;;;1.70;99.90;;;;;;8340688;28;19945;-67
2021/12/09 07:09:28;;;;;;;;;;;1.80;99.90;;;;;;8342311;28;19912;-67
2021/12/09 07:13:30;;;;;;;;;;;1.70;99.90;;;;;;8348417;28;19920;-66
2021/12/09 07:17:31;;;;;;;;;;;1.70;99.90;;;;;;8329909;28;20590;-65
2021/12/09 07:21:31;;;;;;;;;;;1.70;99.90;;;;;;8327545;28;19968;-66
2021/12/09 07:25:32;;;;;;;;;;;1.60;99.90;;;;;;8341252;28;19913;-66
2021/12/09 07:29:32;;;;;;;;;;;1.70;99.90;;;;;;8341506;28;19936;-66
2021/12/09 07:33:33;;;;;;;;;;;1.80;99.90;;;;;;8332174;28;19912;-66
2021/12/09 07:37:34;;;;;;;;;;;1.80;99.90;;;;;;8345505;28;19919;-66
2021/12/09 07:41:35;;;;;;;;;;;1.80;99.90;;;;;;8340933;28;20422;-67
2021/12/09 07:45:35;;;;;;;;;;;2.00;99.90;;;;;;8354869;28;19913;-67
2021/12/09 07:49:36;;;;;;;;;;;2.10;99.90;;;;;;8353662;28;20000;-66
2021/12/09 07:53:36;;;;;;;;;;;2.30;99.90;;;;;;8357214;28;19920;-66
2021/12/09 07:57:38;;;;;;;;;;;2.30;99.90;;;;;;8328788;28;20296;-67
2021/12/09 08:01:39;;;;;;;;;;;2.30;99.90;;;;;;8325508;28;20381;-66
2021/12/09 08:05:41;;;;;;;;;;;2.30;99.90;;;;;;8326678;28;19928;-67
2021/12/09 08:09:41;;;;;;;;;;;2.50;99.90;;;;;;8358173;28;19970;-68
2021/12/09 08:13:42;;;;;;;;;;;2.60;99.90;;;;;;8365296;28;19987;-66
2021/12/09 08:21:43;;;;;;;;;;;2.70;99.90;;;;;;8352477;28;20557;-66
2021/12/09 08:25:44;;;;;;;;;;;2.80;99.90;;;;;;8346594;28;19969;-66
2021/12/09 08:29:45;;;;;;;;;;;2.70;99.90;;;;;;8346969;28;20031;-66
2021/12/09 08:33:45;;;;;;;;;;;2.80;99.90;;;;;;8360842;28;19912;-66
2021/12/09 08:37:46;;;;;;;;;;;3.00;99.90;;;;;;8346756;28;19913;-66
2021/12/09 08:41:47;;;;;;;;;;;2.90;99.90;;;;;;8362963;28;19921;-66
2021/12/09 08:45:48;;;;;;;;;;;3.00;99.90;;;;;;8362193;28;19909;-66
2021/12/09 08:49:49;;;;;;;;;;;3.10;99.90;;;;;;8359775;28;19996;-67
2021/12/09 08:53:49;;;;;;;;;;;3.20;99.90;;;;;;8361019;28;19958;-67
2021/12/09 08:57:50;;;;;;;;;;;3.30;99.90;;;;;;8363487;28;19925;-66
2021/12/09 09:01:51;;;;;;;;;;;3.50;99.90;;;;;;8360427;28;19920;-66
2021/12/09 09:05:52;;;;;;;;;;;3.50;99.90;;;;;;8343180;28;19920;-66
2021/12/09 09:09:53;;;;;;;;;;;3.30;99.90;;;;;;8332635;28;20290;-66
2021/12/09 09:13:53;;;;;;;;;;;3.50;99.90;;;;;;8337666;28;19913;-67
2021/12/09 09:17:54;;;;;;;;;;;3.60;99.90;;;;;;8336428;28;20032;-67
2021/12/09 09:21:55;;;;;;;;;;;3.50;99.90;;;;;;8345757;28;19917;-66
2021/12/09 09:25:55;;;;;;;;;;;3.70;99.90;;;;;;8330345;28;20023;-66
2021/12/09 09:29:56;;;;;;;;;;;3.70;99.90;;;;;;8331403;28;20300;-68
2021/12/09 09:33:59;;;;;;;;;;;4.10;99.90;;;;;;8343287;28;19913;-67
2021/12/09 09:38:00;;;;;;;;;;;4.40;99.90;;;;;;8344157;28;20312;-68
2021/12/09 09:42:20;;;;;;;;;;;4.50;99.90;;;;;;8343610;28;19920;-66
2021/12/09 09:46:23;;;;;;;;;;;4.60;99.90;;;;;;8344271;28;19916;-67
2021/12/09 09:50:24;;;;;;;;;;;4.40;99.90;;;;;;8344880;28;19917;-66
2021/12/09 09:54:25;;;;;;;;;;;4.20;99.90;;;;;;8346669;28;20353;-68
2021/12/09 09:58:25;;;;;;;;;;;4.30;99.90;;;;;;8344060;28;19925;-67
2021/12/09 10:02:26;;;;;;;;;;;4.00;99.90;;;;;;8343527;28;19924;-66
2021/12/09 10:06:26;;;;;;;;;;;4.00;99.90;;;;;;8343398;28;19921;-68
2021/12/09 10:10:27;;;;;;;;;;;4.10;99.90;;;;;;8343490;28;19914;-67
2021/12/09 10:14:30;;;;;;;;;;;4.20;99.90;;;;;;8344329;28;19935;-66
2021/12/09 10:18:36;;;;;;;;;;;4.30;99.90;;;;;;8341193;28;19917;-66
2021/12/09 10:22:37;;;;;;;;;;;4.30;99.90;;;;;;8345805;28;19928;-67
2021/12/09 10:26:45;;;;;;;;;;;4.40;99.90;;;;;;8329446;28;19908;-67
2021/12/09 10:31:08;;;;;;;;;;;4.20;99.90;;;;;;8352078;28;19971;-67
2021/12/09 10:35:16;;;;;;;;;;;4.10;99.90;;;;;;8342646;28;19916;-66
2021/12/09 10:39:20;;;;;;;;;;;4.00;99.90;;;;;;8359198;28;19912;-67
2021/12/09 10:43:20;;;;;;;;;;;4.00;99.90;;;;;;8337987;28;19932;-66
2021/12/09 10:51:54;;;;;;;;;;;3.80;99.90;;;;;;8352493;28;19915;-66
2021/12/09 10:56:00;;;;;;;;;;;3.60;99.90;;;;;;8354609;28;20023;-66
2021/12/09 11:00:15;;;;;;;;;;;3.50;99.90;;;;;;8342351;28;19928;-66
2021/12/09 11:04:22;;;;;;;;;;;3.50;99.90;;;;;;8370234;28;20400;-66
2021/12/09 11:08:28;;;;;;;;;;;3.80;99.90;;;;;;8353740;28;20288;-65
2021/12/09 11:12:29;;;;;;;;;;;3.80;99.90;;;;;;8325810;28;20328;-67
2021/12/09 11:16:36;;;;;;;;;;;4.00;99.90;;;;;;8308777;28;19962;-66
2021/12/09 11:20:43;;;;;;;;;;;4.20;99.90;;;;;;8337943;28;20046;-66
2021/12/09 11:24:48;;;;;;;;;;;4.20;99.90;;;;;;8357876;28;19913;-66
2021/12/09 11:28:55;;;;;;;;;;;4.20;99.90;;;;;;8348209;28;20292;-65
2021/12/09 11:32:59;;;;;;;;;;;4.30;99.90;;;;;;8340678;28;19917;-66
2021/12/09 11:37:07;;;;;;;;;;;4.10;99.90;;;;;;8357069;28;20447;-66
2021/12/09 11:41:26;;;;;;;;;;;4.40;99.90;;;;;;8340451;28;19924;-65
2021/12/09 11:45:31;;;;;;;;;;;4.50;99.90;;;;;;8341762;28;20284;-66
2021/12/09 11:49:32;;;;;;;;;;;4.10;99.90;;;;;;8340452;28;19967;-68
2021/12/09 11:53:37;;;;;;;;;;;3.80;99.90;;;;;;8342022;28;19913;-66
2021/12/09 11:57:42;;;;;;;;;;;3.90;99.90;;;;;;8322507;28;19924;-65
2021/12/09 12:16:02;;;;;;;;;;;4.20;99.90;;;;;;8358362;28;19916;-66
2021/12/09 12:20:24;;;;;;;;;;;4.50;99.90;;;;;;8335830;28;19920;-67
2021/12/09 12:24:42;;;;;;;;;;;4.40;99.90;;;;;;8354648;28;20022;-65
2021/12/09 12:28:56;;;;;;;;;;;4.40;99.90;;;;;;8345089;28;19921;-65
2021/12/09 12:37:42;;;;;;;;;;;4.50;99.90;;;;;;8339811;28;19974;-67
2021/12/09 12:41:56;;;;;;;;;;;4.70;99.90;;;;;;8342990;28;20346;-66
2021/12/09 12:46:10;;;;;;;;;;;4.80;99.90;;;;;;8323605;28;19919;-65
2021/12/09 12:50:12;;;;;;;;;;;5.00;99.90;;;;;;8339904;28;19910;-66
2021/12/09 12:54:15;;;;;;;;;;;4.90;99.90;;;;;;8341825;28;19958;-67
2021/12/09 12:58:15;;;;;;;;;;;4.90;99.90;;;;;;8340762;28;19921;-66
2021/12/09 13:06:54;;;;;;;;;;;5.10;99.90;;;;;;8345366;28;19908;-66
2021/12/09 13:15:06;;;;;;;;;;;4.90;99.90;;;;;;8345067;28;19916;-66
2021/12/09 13:19:32;;;;;;;;;;;4.70;99.90;;;;;;8333662;28;19919;-66
2021/12/09 13:23:33;;;;;;;;;;;4.60;99.90;;;;;;8347765;28;19966;-66
2021/12/09 13:31:56;;;;;;;;;;;4.40;99.90;;;;;;8344430;28;20012;-66
2021/12/09 13:36:31;;;;;;;;;;;4.20;99.90;;;;;;8345040;28;20012;-66
2021/12/09 13:57:43;;;;;;;;;;;3.40;99.90;;;;;;8344234;28;19995;-67
2021/12/09 14:01:45;;;;;;;;;;;3.30;99.90;;;;;;8338731;28;20008;-68
2021/12/09 14:05:50;;;;;;;;;;;3.10;99.90;;;;;;8327731;28;19952;-67
2021/12/09 14:09:58;;;;;;;;;;;3.00;99.90;;;;;;8341789;28;19919;-67
2021/12/09 14:14:06;;;;;;;;;;;3.10;99.90;;;;;;8342853;28;20425;-66
2021/12/09 14:18:13;;;;;;;;;;;3.10;99.90;;;;;;8325580;28;19917;-67
2021/12/09 14:22:14;;;;;;;;;;;2.90;99.90;;;;;;8326832;28;20300;-66
2021/12/09 14:26:16;;;;;;;;;;;3.00;99.90;;;;;;8328205;28;19921;-67
2021/12/09 14:30:16;;;;;;;;;;;2.90;99.90;;;;;;8342172;28;19941;-67
2021/12/09 14:34:17;;;;;;;;;;;2.80;99.90;;;;;;8345572;28;19920;-67
2021/12/09 14:38:20;;;;;;;;;;;2.90;99.90;;;;;;8340708;28;19948;-66
2021/12/09 14:42:20;;;;;;;;;;;2.80;99.90;;;;;;8330430;28;19980;-66
2021/12/09 14:46:24;;;;;;;;;;;2.80;99.90;;;;;;8352554;28;19924;-67
2021/12/09 14:50:36;;;;;;;;;;;2.80;99.90;;;;;;8346181;28;19909;-66
2021/12/09 14:54:36;;;;;;;;;;;2.90;99.90;;;;;;8357334;28;20282;-66
2021/12/09 14:58:39;;;;;;;;;;;3.00;99.90;;;;;;8346076;28;19916;-67
2021/12/09 15:02:49;;;;;;;;;;;2.90;99.90;;;;;;8331416;28;20365;-67
2021/12/09 15:06:57;;;;;;;;;;;2.90;99.90;;;;;;8341919;28;19917;-67
2021/12/09 15:11:07;;;;;;;;;;;2.70;99.90;;;;;;8331960;28;20406;-66
2021/12/09 15:15:15;;;;;;;;;;;2.70;99.90;;;;;;8334191;28;19913;-67
2021/12/09 15:19:17;;;;;;;;;;;2.60;99.90;;;;;;8329794;28;19916;-66
2021/12/09 15:23:31;;;;;;;;;;;2.40;99.90;;;;;;8344304;28;19913;-67
2021/12/09 15:27:47;;;;;;;;;;;2.40;99.90;;;;;;8340352;28;19915;-67
2021/12/09 15:31:54;;;;;;;;;;;2.30;99.90;;;;;;8337414;28;20373;-66
2021/12/09 15:36:00;;;;;;;;;;;2.20;99.90;;;;;;8335968;28;20295;-68
2021/12/09 15:40:01;;;;;;;;;;;2.20;99.90;;;;;;8364655;28;19913;-69
2021/12/09 15:44:11;;;;;;;;;;;2.20;99.90;;;;;;8351196;28;20414;-68
2021/12/09 15:48:16;;;;;;;;;;;2.10;99.90;;;;;;8348644;28;19913;-69
2021/12/09 15:52:18;;;;;;;;;;;2.10;99.90;;;;;;8344564;28;19912;-69
2021/12/09 15:56:21;;;;;;;;;;;2.10;99.90;;;;;;8348271;28;19920;-69
2021/12/09 16:00:25;;;;;;;;;;;2.10;99.90;;;;;;8353332;28;19917;-66
2021/12/09 16:04:27;;;;;;;;;;;2.10;99.90;;;;;;8347690;28;19913;-67
2021/12/09 16:08:28;;;;;;;;;;;2.00;99.90;;;;;;8341149;28;19909;-66
2021/12/09 16:12:29;;;;;;;;;;;2.00;99.90;;;;;;8345438;28;20648;-66
2021/12/09 16:16:33;;;;;;;;;;;2.00;99.90;;;;;;8343681;28;19927;-67
2021/12/09 16:20:44;;;;;;;;;;;1.90;99.90;;;;;;8339388;28;19973;-66
2021/12/09 16:24:45;;;;;;;;;;;1.80;99.90;;;;;;8343756;28;20288;-67
2021/12/09 16:28:46;;;;;;;;;;;1.70;99.90;;;;;;8338869;28;19920;-68
2021/12/09 16:32:47;;;;;;;;;;;1.60;99.90;;;;;;8331449;28;20312;-68
2021/12/09 16:36:48;;;;;;;;;;;1.50;99.90;;;;;;8355998;28;19917;-67
2021/12/09 16:40:49;;;;;;;;;;;1.40;99.90;;;;;;8343546;28;19917;-67
2021/12/09 16:44:49;;;;;;;;;;;1.40;99.90;;;;;;8375142;28;19912;-66
2021/12/09 16:48:50;;;;;;;;;;;1.40;99.90;;;;;;8347760;28;19917;-68
2021/12/09 16:52:51;;;;;;;;;;;1.30;99.90;;;;;;8348013;28;20356;-67
2021/12/09 16:57:31;;;;;;;;;;;1.30;99.90;;;;;;8350291;28;19917;-67
2021/12/09 17:01:18;;;;;;;;;;;1.10;99.90;;;;;;8350784;28;20004;-68
2021/12/09 17:05:19;;;;;;;;;;;1.20;99.90;;;;;;8339533;28;19912;-67
2021/12/09 17:09:19;;;;;;;;;;;1.30;99.90;;;;;;8357490;28;19986;-67
2021/12/09 17:13:20;;;;;;;;;;;1.30;99.90;;;;;;8334871;28;19925;-67
2021/12/09 17:17:21;;;;;;;;;;;1.50;99.90;;;;;;8351818;28;19920;-68
2021/12/09 17:21:22;;;;;;;;;;;1.50;99.90;;;;;;8320759;28;21272;-67
2021/12/09 17:25:23;;;;;;;;;;;1.50;99.90;;;;;;8376992;22;19929;-62
2021/12/09 17:29:24;;;;;;;;;;;1.60;99.90;;;;;;8368257;28;19924;-62
2021/12/09 17:33:27;;;;;;;;;;;1.60;99.90;;;;;;8372561;28;20528;-63
2021/12/09 17:37:28;;;;;;;;;;;1.60;99.90;;;;;;8367696;28;19965;-63
2021/12/09 17:41:29;;;;;;;;;;;1.70;99.90;;;;;;8356873;28;20410;-62
2021/12/09 17:45:29;;;;;;;;;;;1.70;99.90;;;;;;8360088;28;19924;-62
2021/12/09 17:49:32;;;;;;;;;;;1.80;99.90;;;;;;8362432;28;19909;-62
2021/12/09 17:53:32;;;;;;;;;;;1.70;99.90;;;;;;8359914;28;19909;-63
2021/12/09 17:57:33;;;;;;;;;;;1.70;99.90;;;;;;8358295;28;19920;-62
2021/12/09 18:01:33;;;;;;;;;;;1.70;99.90;;;;;;8352791;28;19927;-62
2021/12/09 18:05:34;;;;;;;;;;;1.70;99.90;;;;;;8358366;28;20400;-64
2021/12/09 18:09:35;;;;;;;;;;;1.70;99.90;;;;;;8364878;28;19981;-63
2021/12/09 18:13:36;;;;;;;;;;;1.70;99.90;;;;;;8363223;28;19920;-64
2021/12/09 18:17:43;;;;;;;;;;;1.70;99.90;;;;;;8356263;28;20292;-63
2021/12/09 18:21:43;;;;;;;;;;;1.70;99.90;;;;;;8348367;28;19925;-62
2021/12/09 18:25:48;;;;;;;;;;;1.70;99.90;;;;;;8335836;28;20046;-63
2021/12/09 18:29:48;;;;;;;;;;;1.70;99.90;;;;;;8339148;28;19920;-64
2021/12/09 18:33:51;;;;;;;;;;;1.70;99.90;;;;;;8339873;28;20392;-62
2021/12/09 18:37:55;;;;;;;;;;;1.80;99.90;;;;;;8356615;28;19917;-62
2021/12/09 18:41:56;;;;;;;;;;;1.70;99.90;;;;;;8357228;28;19917;-62
2021/12/09 18:46:03;;;;;;;;;;;1.80;99.90;;;;;;8357657;28;20448;-62
2021/12/09 18:50:05;;;;;;;;;;;1.70;99.90;;;;;;8339223;28;20499;-62
2021/12/09 18:54:06;;;;;;;;;;;1.70;99.90;;;;;;8356466;28;19913;-63
2021/12/09 18:58:09;;;;;;;;;;;1.70;99.90;;;;;;8354260;28;19912;-63
2021/12/09 19:02:10;;;;;;;;;;;1.70;99.90;;;;;;8340124;28;19959;-62
2021/12/09 19:06:13;;;;;;;;;;;1.60;99.90;;;;;;8357609;28;19912;-63
2021/12/09 19:10:14;;;;;;;;;;;1.50;99.90;;;;;;8354012;28;19913;-63
2021/12/09 19:14:17;;;;;;;;;;;1.40;99.90;;;;;;8347592;28;19917;-63
2021/12/09 19:18:27;;;;;;;;;;;1.30;99.90;;;;;;8348277;28;19914;-63
2021/12/09 19:22:30;;;;;;;;;;;1.30;99.90;;;;;;8346676;28;19924;-62
2021/12/09 19:26:31;;;;;;;;;;;1.40;99.90;;;;;;8357354;28;19917;-63
2021/12/09 19:30:32;;;;;;;;;;;1.30;99.90;;;;;;8354568;28;19927;-63
2021/12/09 19:34:34;;;;;;;;;;;1.20;99.90;;;;;;8331933;28;21308;-62
2021/12/09 19:38:35;;;;;;;;;;;1.20;99.90;;;;;;8356636;28;19913;-63
2021/12/09 19:42:35;;;;;;;;;;;1.10;99.90;;;;;;8366523;28;19917;-62
2021/12/09 19:46:36;;;;;;;;;;;1.10;99.90;;;;;;8348524;28;19913;-63
2021/12/09 19:50:36;;;;;;;;;;;1.00;99.90;;;;;;8356356;28;20281;-63
2021/12/09 19:54:37;;;;;;;;;;;1.00;99.90;;;;;;8357275;28;20016;-62
2021/12/09 19:58:38;;;;;;;;;;;1.00;99.90;;;;;;8352995;28;20003;-63
2021/12/09 20:02:38;;;;;;;;;;;1.00;99.90;;;;;;8353692;28;19916;-63
2021/12/09 20:06:41;;;;;;;;;;;1.00;99.90;;;;;;8359808;28;19913;-63
2021/12/09 20:10:42;;;;;;;;;;;1.00;99.90;;;;;;8361749;28;19919;-63
2021/12/09 20:14:42;;;;;;;;;;;0.90;99.90;;;;;;8364186;28;19935;-62
2021/12/09 20:23:21;;;;;;;;;;;1.10;99.90;;;;;;8345871;28;20012;-63
2021/12/09 20:27:22;;;;;;;;;;;1.20;99.90;;;;;;8359748;28;19917;-63
2021/12/09 20:31:23;;;;;;;;;;;1.30;99.90;;;;;;8364549;28;19966;-63
2021/12/09 20:35:24;;;;;;;;;;;1.40;99.90;;;;;;8358324;28;20338;-63
2021/12/09 20:39:25;;;;;;;;;;;1.50;99.90;;;;;;8358747;28;19921;-63
2021/12/09 20:43:26;;;;;;;;;;;1.50;99.90;;;;;;8358716;28;19925;-63
2021/12/09 20:47:26;;;;;;;;;;;1.40;99.90;;;;;;8357852;28;19921;-63
2021/12/09 20:51:28;;;;;;;;;;;1.40;99.90;;;;;;8357775;28;19923;-63
2021/12/09 20:55:30;;;;;;;;;;;1.30;99.90;;;;;;8356811;28;20289;-62
2021/12/09 20:59:31;;;;;;;;;;;1.20;99.90;;;;;;8359208;28;20384;-68
2021/12/09 21:03:31;;;;;;;;;;;1.20;99.90;;;;;;8341413;28;19924;-63
2021/12/09 21:07:32;;;;;;;;;;;1.00;99.90;;;;;;8341785;28;19916;-63
2021/12/09 21:11:32;;;;;;;;;;;0.90;99.90;;;;;;8357893;28;20007;-63
2021/12/09 21:15:33;;;;;;;;;;;0.90;99.90;;;;;;8357709;28;19923;-64
2021/12/09 21:19:42;;;;;;;;;;;0.90;99.90;;;;;;8354324;28;20174;-63
2021/12/09 21:23:43;;;;;;;;;;;0.80;99.90;;;;;;8354470;28;19975;-63
2021/12/09 21:27:44;;;;;;;;;;;0.70;99.90;;;;;;8356298;28;19970;-63
2021/12/09 21:31:44;;;;;;;;;;;0.70;99.90;;;;;;8356622;28;19920;-63
2021/12/09 21:35:45;;;;;;;;;;;0.70;99.90;;;;;;8358006;28;19970;-63
2021/12/09 21:39:45;;;;;;;;;;;0.80;99.90;;;;;;8357568;28;20445;-63
2021/12/09 21:43:46;;;;;;;;;;;0.80;99.90;;;;;;8356891;28;20700;-63
2021/12/09 21:47:47;;;;;;;;;;;0.80;99.90;;;;;;8357119;28;19927;-63
2021/12/09 21:51:47;;;;;;;;;;;0.60;99.90;;;;;;8356708;28;19920;-63
2021/12/09 21:55:48;;;;;;;;;;;0.70;99.90;;;;;;8338348;28;19948;-64
2021/12/09 21:59:49;;;;;;;;;;;0.70;99.90;;;;;;8354515;28;19916;-63
2021/12/09 22:03:52;;;;;;;;;;;0.70;99.90;;;;;;8356296;28;19948;-63
2021/12/09 22:07:53;;;;;;;;;;;0.70;99.90;;;;;;8357110;28;19959;-63
2021/12/09 22:11:54;;;;;;;;;;;0.70;99.90;;;;;;8356506;28;20166;-63
2021/12/09 22:15:55;;;;;;;;;;;0.70;99.90;;;;;;8356323;28;19920;-63
2021/12/09 22:19:58;;;;;;;;;;;0.70;99.90;;;;;;8354846;28;19913;-63
2021/12/09 22:23:59;;;;;;;;;;;0.80;99.90;;;;;;8332088;28;20299;-63
2021/12/09 22:27:59;;;;;;;;;;;0.80;99.90;;;;;;8340921;28;19920;-63
2021/12/09 22:32:00;;;;;;;;;;;0.60;99.90;;;;;;8359267;28;20377;-63
2021/12/09 22:36:03;;;;;;;;;;;0.70;99.90;;;;;;8359171;28;20335;-64
2021/12/09 22:40:08;;;;;;;;;;;0.80;99.90;;;;;;8355543;28;19909;-64
2021/12/09 22:44:10;;;;;;;;;;;0.80;99.90;;;;;;8355380;28;19923;-63
2021/12/09 22:48:12;;;;;;;;;;;1.10;99.90;;;;;;8360282;28;19908;-63
2021/12/09 22:52:13;;;;;;;;;;;1.10;99.90;;;;;;8359279;28;20444;-63
2021/12/09 22:56:15;;;;;;;;;;;1.20;99.90;;;;;;8342629;28;19908;-64
2021/12/09 23:00:34;;;;;;;;;;;1.10;99.90;;;;;;8359927;28;19973;-64
2021/12/09 23:04:34;;;;;;;;;;;1.20;99.90;;;;;;8340387;28;20311;-64
2021/12/09 23:08:36;;;;;;;;;;;1.20;99.90;;;;;;8372335;28;19916;-63
2021/12/09 23:12:39;;;;;;;;;;;1.10;99.90;;;;;;8344344;28;20011;-63
2021/12/09 23:16:44;;;;;;;;;;;1.10;99.90;;;;;;8355289;28;19913;-63
2021/12/09 23:20:45;;;;;;;;;;;1.00;99.90;;;;;;8341080;28;19924;-63
2021/12/09 23:24:45;;;;;;;;;;;0.90;99.90;;;;;;8358070;28;19917;-63
2021/12/09 23:28:46;;;;;;;;;;;0.80;99.90;;;;;;8379992;22;19932;-65
2021/12/09 23:32:47;;;;;;;;;;;0.80;99.90;;;;;;8338061;28;19960;-65
2021/12/09 23:36:48;;;;;;;;;;;0.60;99.90;;;;;;8326312;28;19981;-66
2021/12/09 23:40:49;;;;;;;;;;;0.50;99.90;;;;;;8321607;28;19909;-65
2021/12/09 23:44:49;;;;;;;;;;;0.40;99.90;;;;;;8295136;28;20381;-65
2021/12/09 23:48:53;;;;;;;;;;;0.10;99.90;;;;;;8293724;28;19909;-66
2021/12/09 23:52:53;;;;;;;;;;;-0.10;99.90;;;;;;8307947;28;19913;-66
2021/12/09 23:56:55;;;;;;;;;;;-0.40;99.90;;;;;;8326739;28;19920;-66
